Stella Prima — PHEA — position and weather

sailwx.info

Track history (hours):
 
Tides and Currents Weather Stations Pressure Air Temp Water Temp Dewpoint Dewpoint Depression Visibility Wind Speed Wind Dir Waves Ship Positions

Stella Prima

Last reported at 2014-Oct-24 19:34 UTC. Time now 2014-Oct-24 20:34 UTC.
Position N 53°51' E 008°59'.

Length 100 m; beam 21 m.

Type: Cargo ship. MMSI: 246460000.

Date/timePositionNaut miles runAvg speedWind from/ knotsBaromVisibWave heightAir tempDewpointWater temp
2014-Oct-24 19:34N 53°51' E 008°59'9 9.4
2014-Oct-24 18:33N 53°52' E 008°43'10 9.5
2014-Oct-24 17:34N 53°58' E 008°30'8912.7
2014-Oct-24 10:33N 53°41' E 006°03'1414.4
2014-Oct-24 09:34N 53°36' E 005°40'1514.8
2014-Oct-24 08:34N 53°31' E 005°16'1514.9
2014-Oct-24 07:34N 53°26' E 004°53'1414.1
2014-Oct-24 06:33N 53°15' E 004°37'1814.8
2014-Oct-24 05:19N 52°60' E 004°20'1114.9
2014-Oct-24 04:33N 52°50' E 004°11'7612.6
2014-Oct-23 22:32N 51°42' E 003°17'1212.0
2014-Oct-23 21:33N 51°31' E 003°26'9 8.8
2014-Oct-23 20:33N 51°26' E 003°37'1211.6
2014-Oct-23 19:34N 51°22' E 003°54'10 9.9
2014-Oct-23 18:33N 51°23' E 004°10'9 8.5
2014-Oct-23 17:34N 51°16' E 004°17'0 0.0
2014-Oct-23 16:34N 51°16' E 004°17'2 1.7
2014-Oct-23 15:33N 51°16' E 004°14'0 0.0
2014-Oct-23 14:30N 51°16' E 004°14'0 0.0
2014-Oct-23 13:24N 51°16' E 004°14'0 0.0
2014-Oct-23 12:30N 51°16' E 004°14'0 0.0
2014-Oct-23 11:24N 51°16' E 004°14'0 0.0
2014-Oct-23 10:33N 51°16' E 004°14'0 0.0
2014-Oct-23 09:03N 51°16' E 004°14'0 0.0
2014-Oct-23 08:18N 51°16' E 004°14'0 0.0
2014-Oct-23 07:30N 51°16' E 004°14'0 0.0
2014-Oct-23 05:24N 51°16' E 004°14'0 0.0
2014-Oct-23 03:21N 51°16' E 004°14'0 0.0
2014-Oct-23 02:30N 51°16' E 004°14'0 0.0
2014-Oct-23 01:24N 51°16' E 004°14'0 0.0
2014-Oct-23 00:33N 51°16' E 004°14'0 0.0
2014-Oct-22 23:15N 51°16' E 004°14'0 0.0
2014-Oct-22 22:33N 51°16' E 004°14'0 0.0
2014-Oct-22 21:33N 51°16' E 004°14'0 0.0
2014-Oct-22 20:33N 51°16' E 004°14'0 0.0
2014-Oct-22 19:30N 51°16' E 004°14'0 0.0
2014-Oct-22 18:33N 51°16' E 004°14'0 0.0
2014-Oct-22 17:33N 51°16' E 004°14'0 0.0
2014-Oct-22 16:27N 51°16' E 004°14'0 0.0
2014-Oct-22 15:33N 51°16' E 004°14'0 0.0
2014-Oct-22 14:18N 51°16' E 004°14'0 0.0
2014-Oct-22 13:30N 51°16' E 004°14'0 0.0
2014-Oct-22 12:09N 51°16' E 004°14'0 0.0
2014-Oct-22 11:30N 51°16' E 004°14'0 0.0
2014-Oct-22 10:21N 51°16' E 004°14'0 0.0
2014-Oct-22 09:33N 51°16' E 004°14'0 0.0
2014-Oct-22 08:33N 51°16' E 004°14'0 0.0
2014-Oct-22 07:30N 51°16' E 004°14'0 0.0
2014-Oct-22 06:33N 51°16' E 004°14'0 0.0
2014-Oct-22 05:30N 51°16' E 004°14'0 0.0
2014-Oct-22 04:33N 51°16' E 004°14'0 0.0
2014-Oct-22 03:30N 51°16' E 004°14'0 0.0
2014-Oct-22 02:06N 51°16' E 004°14'0 0.0
2014-Oct-22 01:24N 51°16' E 004°14'0 0.0
2014-Oct-22 00:30N 51°16' E 004°14'0 0.0
2014-Oct-21 23:27N 51°16' E 004°14'0 0.0
2014-Oct-21 22:30N 51°16' E 004°14'0 0.0
2014-Oct-21 21:24N 51°16' E 004°14'0 0.0
2014-Oct-21 20:30N 51°16' E 004°14'0 0.0
2014-Oct-21 19:27N 51°16' E 004°14'0 0.0
2014-Oct-21 18:24N 51°16' E 004°14'0 0.0
2014-Oct-21 17:24N 51°16' E 004°14'0 0.0
2014-Oct-21 16:27N 51°16' E 004°14'0 0.0
2014-Oct-21 15:24N 51°16' E 004°14'0 0.0
2014-Oct-21 14:27N 51°16' E 004°14'0 0.0
2014-Oct-21 13:33N 51°16' E 004°14'0 0.0
2014-Oct-21 12:30N 51°16' E 004°14'0 0.0
2014-Oct-21 11:06N 51°16' E 004°14'0 0.0
2014-Oct-21 10:21N 51°16' E 004°14'0 0.0
2014-Oct-21 09:33N 51°16' E 004°14'0 0.0
2014-Oct-21 08:21N 51°16' E 004°14'0 0.0
2014-Oct-21 07:33N 51°16' E 004°14'0 0.0
2014-Oct-21 06:21N 51°16' E 004°14'0 0.0
2014-Oct-21 05:33N 51°16' E 004°14'0 0.0
2014-Oct-21 04:30N 51°16' E 004°14'0 0.0
2014-Oct-21 03:33N 51°16' E 004°14'0 0.0
2014-Oct-21 02:30N 51°16' E 004°14'0 0.0
2014-Oct-21 01:33N 51°16' E 004°14'0 0.0
2014-Oct-21 00:27N 51°16' E 004°14'0 0.0
2014-Oct-20 23:33N 51°16' E 004°14'0 0.0
2014-Oct-20 22:27N 51°16' E 004°14'0 0.0
2014-Oct-20 21:33N 51°16' E 004°14'0 0.0
2014-Oct-20 20:33N 51°16' E 004°14'0 0.0
2014-Oct-20 19:33N 51°16' E 004°14'0 0.0
2014-Oct-20 18:33N 51°16' E 004°14'0 0.0
2014-Oct-20 17:30N 51°16' E 004°14'0 0.0
2014-Oct-20 16:33N 51°16' E 004°14'0 0.0
2014-Oct-20 15:21N 51°16' E 004°14'0 0.0
2014-Oct-20 14:33N 51°16' E 004°14'0 0.0
2014-Oct-20 13:30N 51°16' E 004°14'0 0.0
2014-Oct-20 12:33N 51°16' E 004°14'0 0.0
2014-Oct-20 11:27N 51°16' E 004°14'0 0.0
2014-Oct-20 10:30N 51°16' E 004°14'0 0.0
2014-Oct-20 09:33N 51°16' E 004°14'0 0.0
2014-Oct-20 08:18N 51°16' E 004°14'0 0.0
2014-Oct-20 07:33N 51°16' E 004°14'0 0.0
2014-Oct-20 06:33N 51°16' E 004°14'0 0.0
2014-Oct-20 05:16N 51°16' E 004°14'0 0.0
2014-Oct-20 04:19N 51°16' E 004°14'0 0.0
2014-Oct-20 03:31N 51°16' E 004°14'0 0.0
2014-Oct-20 02:31N 51°16' E 004°14'0 0.0
2014-Oct-20 01:28N 51°16' E 004°14'0 0.0
2014-Oct-20 00:31N 51°16' E 004°14'0 0.0
2014-Oct-19 23:31N 51°16' E 004°14'0 0.0
2014-Oct-19 22:31N 51°16' E 004°14'0 0.0
2014-Oct-19 21:31N 51°16' E 004°14'0 0.0
2014-Oct-19 20:31N 51°16' E 004°14'0 0.0
2014-Oct-19 19:28N 51°16' E 004°14'2 1.9
2014-Oct-19 18:33N 51°16' E 004°17'1 0.8
2014-Oct-19 17:33N 51°16' E 004°18'5 5.4
2014-Oct-19 16:33N 51°21' E 004°15'8 8.5
2014-Oct-19 15:33N 51°24' E 004°02'7 7.4
2014-Oct-19 14:33N 51°21' E 003°51'10 9.9
2014-Oct-19 13:33N 51°26' E 003°38'7 6.7
2014-Oct-19 12:33N 51°30' E 003°29'8 8.3
2014-Oct-19 11:33N 51°37' E 003°22'10 9.7
2014-Oct-19 10:32N 51°45' E 003°13'6 4.6
2014-Oct-19 09:11N 51°49' E 003°06'2 2.3
2014-Oct-19 08:29N 51°49' E 003°03'133 7.8
2014-Oct-18 15:32N 53°46' E 004°44'1111.1
2014-Oct-18 14:33N 53°57' E 004°50'1110.8
2014-Oct-18 13:33N 54°07' E 004°55'1010.2
2014-Oct-18 12:33N 54°17' E 004°59'10 9.9
2014-Oct-18 11:33N 54°27' E 005°03'1010.1
2014-Oct-18 10:33N 54°36' E 005°06'  
Track history (hours):
 
Tides and Currents Weather Stations Pressure Air Temp Water Temp Dewpoint Dewpoint Depression Visibility Wind Speed Wind Dir Waves Ship Positions

Stella Prima

Last reported at 2014-Oct-24 19:34 UTC. Time now 2014-Oct-24 20:34 UTC.
Position N 53°51' E 008°59'.

Length 100 m; beam 21 m.

Type: Cargo ship. MMSI: 246460000.

Date/timePositionNaut miles runAvg speedWind from/ knotsBaromVisibWave heightAir tempDewpointWater temp
2014-Oct-24 19:34N 53°51' E 008°59'9 9.4
2014-Oct-24 18:33N 53°52' E 008°43'10 9.5
2014-Oct-24 17:34N 53°58' E 008°30'8912.7
2014-Oct-24 10:33N 53°41' E 006°03'1414.4
2014-Oct-24 09:34N 53°36' E 005°40'1514.8
2014-Oct-24 08:34N 53°31' E 005°16'1514.9
2014-Oct-24 07:34N 53°26' E 004°53'1414.1
2014-Oct-24 06:33N 53°15' E 004°37'1814.8
2014-Oct-24 05:19N 52°60' E 004°20'1114.9
2014-Oct-24 04:33N 52°50' E 004°11'7612.6
2014-Oct-23 22:32N 51°42' E 003°17'1212.0
2014-Oct-23 21:33N 51°31' E 003°26'9 8.8
2014-Oct-23 20:33N 51°26' E 003°37'1211.6
2014-Oct-23 19:34N 51°22' E 003°54'10 9.9
2014-Oct-23 18:33N 51°23' E 004°10'9 8.5
2014-Oct-23 17:34N 51°16' E 004°17'0 0.0
2014-Oct-23 16:34N 51°16' E 004°17'2 1.7
2014-Oct-23 15:33N 51°16' E 004°14'0 0.0
2014-Oct-23 14:30N 51°16' E 004°14'0 0.0
2014-Oct-23 13:24N 51°16' E 004°14'0 0.0
2014-Oct-23 12:30N 51°16' E 004°14'0 0.0
2014-Oct-23 11:24N 51°16' E 004°14'0 0.0
2014-Oct-23 10:33N 51°16' E 004°14'0 0.0
2014-Oct-23 09:03N 51°16' E 004°14'0 0.0
2014-Oct-23 08:18N 51°16' E 004°14'0 0.0
2014-Oct-23 07:30N 51°16' E 004°14'0 0.0
2014-Oct-23 05:24N 51°16' E 004°14'0 0.0
2014-Oct-23 03:21N 51°16' E 004°14'0 0.0
2014-Oct-23 02:30N 51°16' E 004°14'0 0.0
2014-Oct-23 01:24N 51°16' E 004°14'0 0.0
2014-Oct-23 00:33N 51°16' E 004°14'0 0.0
2014-Oct-22 23:15N 51°16' E 004°14'0 0.0
2014-Oct-22 22:33N 51°16' E 004°14'0 0.0
2014-Oct-22 21:33N 51°16' E 004°14'0 0.0
2014-Oct-22 20:33N 51°16' E 004°14'0 0.0
2014-Oct-22 19:30N 51°16' E 004°14'0 0.0
2014-Oct-22 18:33N 51°16' E 004°14'0 0.0
2014-Oct-22 17:33N 51°16' E 004°14'0 0.0
2014-Oct-22 16:27N 51°16' E 004°14'0 0.0
2014-Oct-22 15:33N 51°16' E 004°14'0 0.0
2014-Oct-22 14:18N 51°16' E 004°14'0 0.0
2014-Oct-22 13:30N 51°16' E 004°14'0 0.0
2014-Oct-22 12:09N 51°16' E 004°14'0 0.0
2014-Oct-22 11:30N 51°16' E 004°14'0 0.0
2014-Oct-22 10:21N 51°16' E 004°14'0 0.0
2014-Oct-22 09:33N 51°16' E 004°14'0 0.0
2014-Oct-22 08:33N 51°16' E 004°14'0 0.0
2014-Oct-22 07:30N 51°16' E 004°14'0 0.0
2014-Oct-22 06:33N 51°16' E 004°14'0 0.0
2014-Oct-22 05:30N 51°16' E 004°14'0 0.0
2014-Oct-22 04:33N 51°16' E 004°14'0 0.0
2014-Oct-22 03:30N 51°16' E 004°14'0 0.0
2014-Oct-22 02:06N 51°16' E 004°14'0 0.0
2014-Oct-22 01:24N 51°16' E 004°14'0 0.0
2014-Oct-22 00:30N 51°16' E 004°14'0 0.0
2014-Oct-21 23:27N 51°16' E 004°14'0 0.0
2014-Oct-21 22:30N 51°16' E 004°14'0 0.0
2014-Oct-21 21:24N 51°16' E 004°14'0 0.0
2014-Oct-21 20:30N 51°16' E 004°14'0 0.0
2014-Oct-21 19:27N 51°16' E 004°14'0 0.0
2014-Oct-21 18:24N 51°16' E 004°14'0 0.0
2014-Oct-21 17:24N 51°16' E 004°14'0 0.0
2014-Oct-21 16:27N 51°16' E 004°14'0 0.0
2014-Oct-21 15:24N 51°16' E 004°14'0 0.0
2014-Oct-21 14:27N 51°16' E 004°14'0 0.0
2014-Oct-21 13:33N 51°16' E 004°14'0 0.0
2014-Oct-21 12:30N 51°16' E 004°14'0 0.0
2014-Oct-21 11:06N 51°16' E 004°14'0 0.0
2014-Oct-21 10:21N 51°16' E 004°14'0 0.0
2014-Oct-21 09:33N 51°16' E 004°14'0 0.0
2014-Oct-21 08:21N 51°16' E 004°14'0 0.0
2014-Oct-21 07:33N 51°16' E 004°14'0 0.0
2014-Oct-21 06:21N 51°16' E 004°14'0 0.0
2014-Oct-21 05:33N 51°16' E 004°14'0 0.0
2014-Oct-21 04:30N 51°16' E 004°14'0 0.0
2014-Oct-21 03:33N 51°16' E 004°14'0 0.0
2014-Oct-21 02:30N 51°16' E 004°14'0 0.0
2014-Oct-21 01:33N 51°16' E 004°14'0 0.0
2014-Oct-21 00:27N 51°16' E 004°14'0 0.0
2014-Oct-20 23:33N 51°16' E 004°14'0 0.0
2014-Oct-20 22:27N 51°16' E 004°14'0 0.0
2014-Oct-20 21:33N 51°16' E 004°14'0 0.0
2014-Oct-20 20:33N 51°16' E 004°14'0 0.0
2014-Oct-20 19:33N 51°16' E 004°14'0 0.0
2014-Oct-20 18:33N 51°16' E 004°14'0 0.0
2014-Oct-20 17:30N 51°16' E 004°14'0 0.0
2014-Oct-20 16:33N 51°16' E 004°14'0 0.0
2014-Oct-20 15:21N 51°16' E 004°14'0 0.0
2014-Oct-20 14:33N 51°16' E 004°14'0 0.0
2014-Oct-20 13:30N 51°16' E 004°14'0 0.0
2014-Oct-20 12:33N 51°16' E 004°14'0 0.0
2014-Oct-20 11:27N 51°16' E 004°14'0 0.0
2014-Oct-20 10:30N 51°16' E 004°14'0 0.0
2014-Oct-20 09:33N 51°16' E 004°14'0 0.0
2014-Oct-20 08:18N 51°16' E 004°14'0 0.0
2014-Oct-20 07:33N 51°16' E 004°14'0 0.0
2014-Oct-20 06:33N 51°16' E 004°14'0 0.0
2014-Oct-20 05:16N 51°16' E 004°14'0 0.0
2014-Oct-20 04:19N 51°16' E 004°14'0 0.0
2014-Oct-20 03:31N 51°16' E 004°14'0 0.0
2014-Oct-20 02:31N 51°16' E 004°14'0 0.0
2014-Oct-20 01:28N 51°16' E 004°14'0 0.0
2014-Oct-20 00:31N 51°16' E 004°14'0 0.0
2014-Oct-19 23:31N 51°16' E 004°14'0 0.0
2014-Oct-19 22:31N 51°16' E 004°14'0 0.0
2014-Oct-19 21:31N 51°16' E 004°14'0 0.0
2014-Oct-19 20:31N 51°16' E 004°14'0 0.0
2014-Oct-19 19:28N 51°16' E 004°14'2 1.9
2014-Oct-19 18:33N 51°16' E 004°17'1 0.8
2014-Oct-19 17:33N 51°16' E 004°18'5 5.4
2014-Oct-19 16:33N 51°21' E 004°15'8 8.5
2014-Oct-19 15:33N 51°24' E 004°02'7 7.4
2014-Oct-19 14:33N 51°21' E 003°51'10 9.9
2014-Oct-19 13:33N 51°26' E 003°38'7 6.7
2014-Oct-19 12:33N 51°30' E 003°29'8 8.3
2014-Oct-19 11:33N 51°37' E 003°22'10 9.7
2014-Oct-19 10:32N 51°45' E 003°13'6 4.6
2014-Oct-19 09:11N 51°49' E 003°06'2 2.3
2014-Oct-19 08:29N 51°49' E 003°03'133 7.8
2014-Oct-18 15:32N 53°46' E 004°44'1111.1
2014-Oct-18 14:33N 53°57' E 004°50'1110.8
2014-Oct-18 13:33N 54°07' E 004°55'1010.2
2014-Oct-18 12:33N 54°17' E 004°59'10 9.9
2014-Oct-18 11:33N 54°27' E 005°03'1010.1
2014-Oct-18 10:33N 54°36' E 005°06'  

Dump ship's entire track history